Wetterdaten: Woche 04.04.05 - 10.04.05 (KW14)
Datum Zeit Temperatur Luftfeuchte Luftdruck Niederschlag Windrichtung Wind
04.04.2005 00:00 7,1 C 58 % 1024 hPa 0,0 l/m S 0,0 km/h (0 Bft)
04.04.2005 15:00 18,7 C 25 % 1023 hPa 0,0 l/m SW 9,4 km/h (2 Bft)
04.04.2005 16:00 18,2 C 25 % 1023 hPa 0,0 l/m O-SO 12,6 km/h (3 Bft)
04.04.2005 17:00 18,1 C 25 % 1023 hPa 0,0 l/m SW 9,9 km/h (2 Bft)
04.04.2005 18:00 18,2 C 25 % 1023 hPa 0,0 l/m W-SW 5,2 km/h (1 Bft)
04.04.2005 19:00 15,3 C 30 % 1023 hPa 0,0 l/m W-SW 1,0 km/h (0 Bft)
04.04.2005 20:00 11,8 C 39 % 1023 hPa 0,0 l/m N 0,0 km/h (0 Bft)
04.04.2005 21:00 9,4 C 47 % 1023 hPa 0,0 l/m N 0,0 km/h (0 Bft)
04.04.2005 22:00 7,6 C 54 % 1024 hPa 0,0 l/m N 0,0 km/h (0 Bft)
04.04.2005 23:00 6,2 C 61 % 1024 hPa 0,0 l/m N 0,0 km/h (0 Bft)
05.04.2005 00:00 5,0 C 68 % 1024 hPa 0,0 l/m N 0,0 km/h (0 Bft)
05.04.2005 01:00 4,1 C 71 % 1024 hPa 0,0 l/m N 0,0 km/h (0 Bft)
05.04.2005 02:00 3,5 C 74 % 1024 hPa 0,0 l/m N 0,0 km/h (0 Bft)
05.04.2005 03:00 3,0 C 76 % 1025 hPa 0,0 l/m N 0,0 km/h (0 Bft)
05.04.2005 04:00 2,7 C 79 % 1025 hPa 0,0 l/m N 0,0 km/h (0 Bft)
05.04.2005 05:00 2,3 C 79 % 1025 hPa 0,0 l/m N 0,0 km/h (0 Bft)
05.04.2005 06:00 2,0 C 81 % 1025 hPa 0,0 l/m N 0,0 km/h (0 Bft)
05.04.2005 07:00 2,2 C 82 % 1025 hPa 0,0 l/m N 0,2 km/h (0 Bft)
05.04.2005 08:00 5,1 C 70 % 1025 hPa 0,0 l/m S-SO 11,8 km/h (2 Bft)
05.04.2005 09:00 10,2 C 50 % 1026 hPa 0,0 l/m S-SW 18,3 km/h (3 Bft)
05.04.2005 10:00 12,9 C 43 % 1026 hPa 0,0 l/m SW 19,0 km/h (3 Bft)
05.04.2005 11:00 14,0 C 40 % 1026 hPa 0,0 l/m SW 22,8 km/h (4 Bft)
05.04.2005 12:00 15,2 C 41 % 1026 hPa 0,0 l/m W-SW 22,2 km/h (4 Bft)
05.04.2005 13:00 15,6 C 43 % 1026 hPa 0,0 l/m S-SW 21,7 km/h (4 Bft)
05.04.2005 14:00 14,9 C 45 % 1025 hPa 0,0 l/m W-SW 18,7 km/h (3 Bft)
05.04.2005 15:00 14,3 C 47 % 1025 hPa 0,0 l/m W 19,9 km/h (4 Bft)
05.04.2005 16:00 13,1 C 53 % 1026 hPa 0,0 l/m W 23,5 km/h (4 Bft)
05.04.2005 17:00 12,1 C 58 % 1026 hPa 0,0 l/m W 16,9 km/h (3 Bft)
05.04.2005 18:00 11,6 C 62 % 1025 hPa 0,0 l/m W-SW 12,0 km/h (2 Bft)
05.04.2005 19:00 11,3 C 62 % 1026 hPa 0,0 l/m SW 8,6 km/h (2 Bft)
05.04.2005 20:00 10,8 C 66 % 1026 hPa 0,0 l/m S-SW 8,7 km/h (2 Bft)
05.04.2005 21:00 10,5 C 67 % 1026 hPa 0,0 l/m W-SW 9,9 km/h (2 Bft)
05.04.2005 22:00 10,1 C 70 % 1027 hPa 0,0 l/m S-SW 9,6 km/h (2 Bft)
05.04.2005 23:00 9,5 C 78 % 1026 hPa 0,0 l/m S-SW 8,5 km/h (2 Bft)
06.04.2005 00:00 9,2 C 79 % 1026 hPa 0,0 l/m S-SW 11,7 km/h (2 Bft)
06.04.2005 01:00 9,2 C 77 % 1026 hPa 0,0 l/m S-SW 8,7 km/h (2 Bft)
06.04.2005 02:00 9,1 C 77 % 1026 hPa 0,0 l/m S-SW 5,2 km/h (1 Bft)
06.04.2005 03:00 8,6 C 81 % 1025 hPa 0,0 l/m N 0,0 km/h (0 Bft)
06.04.2005 04:00 8,1 C 85 % 1025 hPa 0,0 l/m N 0,0 km/h (0 Bft)
06.04.2005 05:00 7,6 C 88 % 1025 hPa 0,0 l/m N 0,0 km/h (0 Bft)
06.04.2005 06:00 6,9 C 92 % 1024 hPa 0,0 l/m N 0,0 km/h (0 Bft)
06.04.2005 07:00 6,9 C 95 % 1024 hPa 0,0 l/m N 0,0 km/h (0 Bft)
06.04.2005 08:00 7,7 C 96 % 1024 hPa 0,0 l/m S-SO 0,9 km/h (0 Bft)
06.04.2005 09:00 10,0 C 83 % 1024 hPa 0,0 l/m S-SO 7,0 km/h (2 Bft)
06.04.2005 10:00 12,5 C 65 % 1024 hPa 0,0 l/m S 10,9 km/h (2 Bft)
06.04.2005 11:00 14,9 C 52 % 1023 hPa 0,0 l/m S 13,3 km/h (3 Bft)
06.04.2005 12:00 16,3 C 42 % 1023 hPa 0,0 l/m S-SW 17,9 km/h (3 Bft)
06.04.2005 13:00 17,2 C 38 % 1022 hPa 0,0 l/m S-SW 20,3 km/h (4 Bft)
06.04.2005 14:00 17,7 C 36 % 1021 hPa 0,0 l/m SW 24,3 km/h (4 Bft)
06.04.2005 15:00 18,1 C 35 % 1020 hPa 0,0 l/m W-SW 23,1 km/h (4 Bft)
06.04.2005 16:00 18,0 C 35 % 1019 hPa 0,0 l/m SW 20,0 km/h (4 Bft)
06.04.2005 17:00 18,2 C 35 % 1018 hPa 0,0 l/m W-SW 18,8 km/h (3 Bft)
06.04.2005 18:00 17,1 C 37 % 1018 hPa 0,0 l/m S-SW 15,7 km/h (3 Bft)
06.04.2005 19:00 16,0 C 40 % 1017 hPa 0,0 l/m S-SW 12,7 km/h (3 Bft)
06.04.2005 20:00 14,5 C 45 % 1017 hPa 0,0 l/m S-SW 11,5 km/h (2 Bft)
06.04.2005 21:00 14,0 C 45 % 1017 hPa 0,0 l/m S-SW 12,6 km/h (3 Bft)
06.04.2005 22:00 14,5 C 43 % 1017 hPa 0,0 l/m W-SW 15,1 km/h (3 Bft)
06.04.2005 23:00 13,5 C 50 % 1017 hPa 0,0 l/m S-SW 6,4 km/h (2 Bft)
07.04.2005 00:00 12,2 C 55 % 1016 hPa 0,0 l/m S-SW 8,2 km/h (2 Bft)
07.04.2005 01:00 12,2 C 53 % 1016 hPa 0,0 l/m S-SW 10,0 km/h (2 Bft)
07.04.2005 02:00 11,9 C 54 % 1015 hPa 0,0 l/m S-SW 6,7 km/h (2 Bft)
07.04.2005 03:00 12,2 C 53 % 1015 hPa 0,0 l/m W 10,8 km/h (2 Bft)
07.04.2005 04:00 11,9 C 55 % 1014 hPa 0,0 l/m S-SW 9,3 km/h (2 Bft)
07.04.2005 05:00 12,4 C 52 % 1013 hPa 0,0 l/m SW 21,4 km/h (4 Bft)
07.04.2005 06:00 11,9 C 56 % 1013 hPa 0,0 l/m S-SW 25,2 km/h (4 Bft)
07.04.2005 07:00 11,6 C 57 % 1012 hPa 0,0 l/m SW 18,3 km/h (3 Bft)
07.04.2005 08:00 11,9 C 57 % 1012 hPa 0,0 l/m S-SW 9,2 km/h (2 Bft)
07.04.2005 09:00 13,0 C 54 % 1012 hPa 0,0 l/m SW 18,6 km/h (3 Bft)
07.04.2005 10:00 11,6 C 66 % 1012 hPa 0,0 l/m W-SW 24,7 km/h (4 Bft)
07.04.2005 11:00 11,2 C 74 % 1012 hPa 0,0 l/m SW 26,9 km/h (4 Bft)
07.04.2005 12:00 11,6 C 73 % 1012 hPa 0,0 l/m SW 26,2 km/h (4 Bft)
07.04.2005 13:00 12,2 C 66 % 1011 hPa 0,0 l/m S-SW 29,6 km/h (5 Bft)
07.04.2005 14:00 12,5 C 65 % 1011 hPa 0,0 l/m SW 26,4 km/h (4 Bft)
07.04.2005 15:00 12,5 C 64 % 1010 hPa 0,0 l/m SW 26,4 km/h (4 Bft)
07.04.2005 16:00 12,1 C 68 % 1010 hPa 0,0 l/m SW 22,7 km/h (4 Bft)
07.04.2005 17:00 12,2 C 66 % 1009 hPa 0,0 l/m SW 24,9 km/h (4 Bft)
07.04.2005 18:00 11,7 C 68 % 1009 hPa 0,0 l/m SW 26,0 km/h (4 Bft)
07.04.2005 19:00 10,5 C 74 % 1008 hPa 0,0 l/m W 25,1 km/h (4 Bft)
07.04.2005 20:00 10,1 C 74 % 1008 hPa 0,0 l/m SW 20,3 km/h (4 Bft)
07.04.2005 21:00 9,6 C 78 % 1008 hPa 0,0 l/m W-SW 19,3 km/h (3 Bft)
07.04.2005 22:00 8,7 C 88 % 1008 hPa 0,0 l/m W-SW 15,9 km/h (3 Bft)
07.04.2005 23:00 8,4 C 93 % 1007 hPa 1,0 l/m W-SW 8,6 km/h (2 Bft)
08.04.2005 00:00 8,1 C 96 % 1007 hPa 0,0 l/m S-SW 7,9 km/h (2 Bft)
08.04.2005 01:00 8,0 C 99 % 1006 hPa 1,0 l/m SW 7,2 km/h (2 Bft)
08.04.2005 02:00 7,9 C 100 % 1006 hPa 0,0 l/m S-SW 7,5 km/h (2 Bft)
08.04.2005 03:00 8,0 C 98 % 1005 hPa 1,0 l/m SW 11,3 km/h (2 Bft)
08.04.2005 04:00 7,9 C 98 % 1004 hPa 0,0 l/m S-SW 9,2 km/h (2 Bft)
08.04.2005 05:00 7,7 C 100 % 1004 hPa 1,0 l/m S-SW 8,6 km/h (2 Bft)
08.04.2005 06:00 7,5 C 98 % 1004 hPa 1,0 l/m W-SW 11,8 km/h (2 Bft)
08.04.2005 07:00 6,7 C 95 % 1004 hPa 1,0 l/m SW 11,1 km/h (2 Bft)
08.04.2005 08:00 6,4 C 97 % 1005 hPa 2,0 l/m S-SW 9,6 km/h (2 Bft)
08.04.2005 09:00 6,1 C 95 % 1005 hPa 1,0 l/m W-SW 12,7 km/h (3 Bft)
08.04.2005 10:00 6,0 C 92 % 1005 hPa 0,0 l/m W-SW 10,0 km/h (2 Bft)
08.04.2005 11:00 6,4 C 89 % 1006 hPa 1,0 l/m SW 9,9 km/h (2 Bft)
08.04.2005 12:00 5,9 C 90 % 1006 hPa 1,0 l/m SW 14,6 km/h (3 Bft)
08.04.2005 13:00 5,8 C 89 % 1006 hPa 0,0 l/m W-SW 16,5 km/h (3 Bft)
08.04.2005 14:00 6,1 C 89 % 1006 hPa 0,0 l/m S-SW 14,2 km/h (3 Bft)
08.04.2005 15:00 6,0 C 89 % 1005 hPa 1,0 l/m SW 14,8 km/h (3 Bft)
08.04.2005 16:00 5,7 C 89 % 1005 hPa 2,0 l/m W-SW 13,7 km/h (3 Bft)
08.04.2005 17:00 4,9 C 91 % 1005 hPa 0,0 l/m S-SW 15,3 km/h (3 Bft)
08.04.2005 18:00 5,1 C 94 % 1006 hPa 0,0 l/m S-SW 13,5 km/h (3 Bft)
08.04.2005 19:00 4,8 C 91 % 1006 hPa 1,0 l/m S-SW 16,5 km/h (3 Bft)
08.04.2005 20:00 4,3 C 92 % 1006 hPa 0,0 l/m S 17,4 km/h (3 Bft)
08.04.2005 21:00 4,2 C 96 % 1007 hPa 0,0 l/m S-SW 12,9 km/h (3 Bft)
08.04.2005 22:00 3,5 C 92 % 1007 hPa 0,0 l/m N-NW 6,6 km/h (2 Bft)
08.04.2005 23:00 2,9 C 93 % 1007 hPa 1,0 l/m NW 7,9 km/h (2 Bft)
09.04.2005 00:00 2,0 C 95 % 1007 hPa 2,0 l/m S 5,5 km/h (1 Bft)
09.04.2005 01:00 2,0 C 98 % 1007 hPa 0,0 l/m S 5,1 km/h (1 Bft)
09.04.2005 02:00 2,1 C 100 % 1007 hPa 0,0 l/m S 4,0 km/h (1 Bft)
09.04.2005 03:00 2,2 C 100 % 1007 hPa 0,0 l/m S-SO 1,4 km/h (1 Bft)
09.04.2005 04:00 2,3 C 100 % 1007 hPa 1,0 l/m N 0,0 km/h (0 Bft)
09.04.2005 05:00 2,3 C 100 % 1006 hPa 0,0 l/m W-NW 1,0 km/h (0 Bft)
09.04.2005 06:00 2,2 C 100 % 1007 hPa 0,0 l/m W 2,5 km/h (1 Bft)
09.04.2005 07:00 2,1 C 100 % 1007 hPa 1,0 l/m W 1,9 km/h (1 Bft)
09.04.2005 08:00 2,3 C 100 % 1008 hPa 0,0 l/m W 7,6 km/h (2 Bft)
09.04.2005 09:00 3,2 C 100 % 1008 hPa 0,0 l/m NW 9,3 km/h (2 Bft)
09.04.2005 10:00 4,2 C 99 % 1009 hPa 1,0 l/m N-NW 14,1 km/h (3 Bft)
09.04.2005 11:00 4,6 C 92 % 1010 hPa 0,0 l/m N 17,0 km/h (3 Bft)
09.04.2005 12:00 4,8 C 89 % 1010 hPa 0,0 l/m N 20,2 km/h (4 Bft)
09.04.2005 13:00 4,7 C 89 % 1011 hPa 0,0 l/m N-NW 20,5 km/h (4 Bft)
09.04.2005 14:00 4,7 C 91 % 1011 hPa 1,0 l/m N-NW 22,6 km/h (4 Bft)
09.04.2005 15:00 4,4 C 86 % 1012 hPa 0,0 l/m N 24,3 km/h (4 Bft)
09.04.2005 16:00 4,1 C 87 % 1013 hPa 0,0 l/m N-NW 23,4 km/h (4 Bft)
09.04.2005 17:00 4,0 C 85 % 1014 hPa 0,0 l/m NW 20,7 km/h (4 Bft)
09.04.2005 18:00 3,7 C 81 % 1016 hPa 0,0 l/m N 21,4 km/h (4 Bft)
09.04.2005 19:00 3,1 C 81 % 1017 hPa 0,0 l/m NW 21,8 km/h (4 Bft)
09.04.2005 20:00 2,6 C 82 % 1018 hPa 0,0 l/m NW 18,9 km/h (3 Bft)
09.04.2005 21:00 2,5 C 81 % 1019 hPa 0,0 l/m N-NW 16,8 km/h (3 Bft)
09.04.2005 22:00 2,4 C 80 % 1020 hPa 0,0 l/m N-NW 15,0 km/h (3 Bft)
09.04.2005 23:00 2,2 C 80 % 1020 hPa 0,0 l/m NW 14,2 km/h (3 Bft)
10.04.2005 00:00 1,5 C 78 % 1021 hPa 0,0 l/m NW 12,6 km/h (3 Bft)
10.04.2005 01:00 0,8 C 80 % 1021 hPa 0,0 l/m NW 5,6 km/h (1 Bft)
10.04.2005 02:00 0,1 C 84 % 1021 hPa 0,0 l/m NW 3,4 km/h (1 Bft)
10.04.2005 03:00 -0,7 C 86 % 1021 hPa 0,0 l/m N 0,1 km/h (0 Bft)
10.04.2005 04:00 -1,5 C 89 % 1021 hPa 0,0 l/m N 0,0 km/h (0 Bft)
10.04.2005 05:00 -2,1 C 91 % 1021 hPa 0,0 l/m W-NW 1,1 km/h (1 Bft)
10.04.2005 06:00 -2,6 C 92 % 1022 hPa 0,0 l/m N 0,0 km/h (0 Bft)
10.04.2005 07:00 -2,7 C 93 % 1022 hPa 0,0 l/m N 0,0 km/h (0 Bft)
10.04.2005 08:00 -0,8 C 95 % 1023 hPa 0,0 l/m N 0,0 km/h (0 Bft)
10.04.2005 09:00 2,1 C 76 % 1023 hPa 0,0 l/m S-SW 4,8 km/h (1 Bft)
10.04.2005 10:00 4,7 C 53 % 1023 hPa 0,0 l/m W-SW 4,8 km/h (1 Bft)
10.04.2005 11:00 6,2 C 48 % 1024 hPa 0,0 l/m N 6,5 km/h (2 Bft)
10.04.2005 12:00 7,4 C 44 % 1024 hPa 0,0 l/m N-NO 6,3 km/h (2 Bft)
10.04.2005 13:00 7,8 C 43 % 1023 hPa 0,0 l/m O-NO 6,4 km/h (2 Bft)
10.04.2005 14:00 7,7 C 44 % 1024 hPa 0,0 l/m N-NW 6,7 km/h (2 Bft)
10.04.2005 15:00 8,1 C 43 % 1023 hPa 0,0 l/m N-NO 8,1 km/h (2 Bft)
10.04.2005 16:00 8,2 C 44 % 1023 hPa 0,0 l/m NO 10,6 km/h (2 Bft)
10.04.2005 17:00 7,9 C 46 % 1023 hPa 0,0 l/m N-NO 10,8 km/h (2 Bft)
10.04.2005 18:00 7,5 C 48 % 1024 hPa 0,0 l/m N-NO 12,1 km/h (2 Bft)
10.04.2005 19:00 6,8 C 51 % 1024 hPa 0,0 l/m O-NO 11,8 km/h (2 Bft)
10.04.2005 20:00 6,1 C 56 % 1024 hPa 0,0 l/m O-NO 9,8 km/h (2 Bft)
10.04.2005 21:00 5,6 C 60 % 1025 hPa 0,0 l/m N-NO 8,1 km/h (2 Bft)
10.04.2005 22:00 5,3 C 64 % 1025 hPa 0,0 l/m N-NO 7,3 km/h (2 Bft)
10.04.2005 23:00 4,9 C 67 % 1025 hPa 0,0 l/m N-NO 4,3 km/h (1 Bft)
Min-Datum _ 10.04.05 04.04.05 08.04.05 - - 04.04.05
_ Min-Zeit 06:53 15:56 03:43 - - 00:00
Minimum _ -2,8 C 25 % 1004 hPa - - 0,0 km/h (0 Bft)
Max-Datum _ 04.04.05 08.04.05 05.04.05 08.04.05 - 07.04.05
_ Max-Zeit 15:56 01:59 22:43 08:03 - 13:03
Maximum _ 18,7 C 100 % 1027 hPa 2,0 l/m - 54,4 km/h
S-SW (7 Bft)
Durchschnitt _ 8,0 C 71 % 1017 hPa #22,0 l/m S-SW 11,3 km/h (2 Bft)

Durchschnitt Minimum Temp.7,6 C
Durchschnitt Maximum Temp.8,4 C